sensor_id;sensor_type;location;lat;lon;timestamp;P1;durP1;ratioP1;P2;durP2;ratioP2
71888;SDS011;59762;49.998;14.858;2022-09-01T00:00:32;6.22;;;2.70;;
71888;SDS011;59762;49.998;14.858;2022-09-01T00:03:02;5.68;;;2.33;;
71888;SDS011;59762;49.998;14.858;2022-09-01T00:05:28;4.53;;;2.33;;
71888;SDS011;59762;49.998;14.858;2022-09-01T00:07:55;3.25;;;2.03;;
71888;SDS011;59762;49.998;14.858;2022-09-01T00:10:21;4.65;;;2.30;;
71888;SDS011;59762;49.998;14.858;2022-09-01T00:12:46;3.97;;;2.10;;
71888;SDS011;59762;49.998;14.858;2022-09-01T00:15:12;5.55;;;2.47;;
71888;SDS011;59762;49.998;14.858;2022-09-01T00:17:39;5.28;;;2.45;;
71888;SDS011;59762;49.998;14.858;2022-09-01T00:20:05;2.70;;;2.20;;
71888;SDS011;59762;49.998;14.858;2022-09-01T00:22:31;3.38;;;2.22;;
71888;SDS011;59762;49.998;14.858;2022-09-01T00:24:58;3.17;;;2.30;;
71888;SDS011;59762;49.998;14.858;2022-09-01T00:27:23;4.00;;;2.58;;
71888;SDS011;59762;49.998;14.858;2022-09-01T00:29:49;4.57;;;2.53;;
71888;SDS011;59762;49.998;14.858;2022-09-01T00:32:14;3.22;;;2.40;;
71888;SDS011;59762;49.998;14.858;2022-09-01T00:34:40;2.70;;;1.98;;
71888;SDS011;59762;49.998;14.858;2022-09-01T00:37:06;5.65;;;3.53;;
71888;SDS011;59762;49.998;14.858;2022-09-01T00:39:32;4.47;;;2.80;;
71888;SDS011;59762;49.998;14.858;2022-09-01T00:41:58;6.82;;;2.50;;
71888;SDS011;59762;49.998;14.858;2022-09-01T00:44:23;5.55;;;2.50;;
71888;SDS011;59762;49.998;14.858;2022-09-01T00:46:52;6.72;;;2.40;;
71888;SDS011;59762;49.998;14.858;2022-09-01T00:52:12;3.22;;;2.60;;
71888;SDS011;59762;49.998;14.858;2022-09-01T00:54:40;4.70;;;2.60;;
71888;SDS011;59762;49.998;14.858;2022-09-01T00:57:11;3.28;;;2.38;;
71888;SDS011;59762;49.998;14.858;2022-09-01T00:59:42;4.35;;;3.13;;
71888;SDS011;59762;49.998;14.858;2022-09-01T01:02:13;3.40;;;2.42;;
71888;SDS011;59762;49.998;14.858;2022-09-01T01:04:39;3.47;;;2.83;;
71888;SDS011;59762;49.998;14.858;2022-09-01T01:07:08;5.18;;;2.80;;
71888;SDS011;59762;49.998;14.858;2022-09-01T01:09:37;3.40;;;2.97;;
71888;SDS011;59762;49.998;14.858;2022-09-01T01:12:05;3.17;;;2.53;;
71888;SDS011;59762;49.998;14.858;2022-09-01T01:14:34;4.80;;;3.17;;
71888;SDS011;59762;49.998;14.858;2022-09-01T01:17:01;3.33;;;2.42;;
71888;SDS011;59762;49.998;14.858;2022-09-01T01:22:19;3.28;;;2.83;;
71888;SDS011;59762;49.998;14.858;2022-09-01T01:25:10;3.53;;;2.72;;
71888;SDS011;59762;49.998;14.858;2022-09-01T01:27:37;4.53;;;2.65;;
71888;SDS011;59762;49.998;14.858;2022-09-01T01:30:07;4.53;;;3.08;;
71888;SDS011;59762;49.998;14.858;2022-09-01T01:32:36;3.65;;;2.83;;
71888;SDS011;59762;49.998;14.858;2022-09-01T01:35:07;3.80;;;2.70;;
71888;SDS011;59762;49.998;14.858;2022-09-01T01:37:36;6.22;;;3.22;;
71888;SDS011;59762;49.998;14.858;2022-09-01T01:40:03;3.33;;;3.03;;
71888;SDS011;59762;49.998;14.858;2022-09-01T01:42:31;8.00;;;3.28;;
71888;SDS011;59762;49.998;14.858;2022-09-01T01:44:57;4.13;;;3.03;;
71888;SDS011;59762;49.998;14.858;2022-09-01T01:47:23;3.72;;;3.08;;
71888;SDS011;59762;49.998;14.858;2022-09-01T01:49:49;8.20;;;3.55;;
71888;SDS011;59762;49.998;14.858;2022-09-01T01:52:16;5.57;;;3.08;;
71888;SDS011;59762;49.998;14.858;2022-09-01T01:54:45;5.60;;;2.92;;
71888;SDS011;59762;49.998;14.858;2022-09-01T01:57:11;5.53;;;3.38;;
71888;SDS011;59762;49.998;14.858;2022-09-01T01:59:41;5.40;;;3.38;;
71888;SDS011;59762;49.998;14.858;2022-09-01T02:02:06;6.05;;;3.55;;
71888;SDS011;59762;49.998;14.858;2022-09-01T02:04:34;7.88;;;3.40;;
71888;SDS011;59762;49.998;14.858;2022-09-01T02:07:00;4.60;;;3.15;;
71888;SDS011;59762;49.998;14.858;2022-09-01T02:09:25;4.38;;;2.85;;
71888;SDS011;59762;49.998;14.858;2022-09-01T02:11:51;5.80;;;3.35;;
71888;SDS011;59762;49.998;14.858;2022-09-01T02:14:21;6.32;;;3.20;;
71888;SDS011;59762;49.998;14.858;2022-09-01T02:16:47;6.80;;;3.08;;
71888;SDS011;59762;49.998;14.858;2022-09-01T02:19:13;7.22;;;3.10;;
71888;SDS011;59762;49.998;14.858;2022-09-01T02:21:43;5.50;;;3.40;;
71888;SDS011;59762;49.998;14.858;2022-09-01T02:24:13;8.35;;;3.10;;
71888;SDS011;59762;49.998;14.858;2022-09-01T02:26:41;5.65;;;2.97;;
71888;SDS011;59762;49.998;14.858;2022-09-01T02:29:12;5.95;;;3.38;;
71888;SDS011;59762;49.998;14.858;2022-09-01T02:31:44;8.55;;;3.20;;
71888;SDS011;59762;49.998;14.858;2022-09-01T02:34:11;5.40;;;2.90;;
71888;SDS011;59762;49.998;14.858;2022-09-01T02:36:48;6.18;;;3.50;;
71888;SDS011;59762;49.998;14.858;2022-09-01T02:39:15;5.22;;;3.72;;
71888;SDS011;59762;49.998;14.858;2022-09-01T02:41:43;4.22;;;2.78;;
71888;SDS011;59762;49.998;14.858;2022-09-01T02:44:09;5.65;;;3.45;;
71888;SDS011;59762;49.998;14.858;2022-09-01T02:46:39;4.63;;;3.67;;
71888;SDS011;59762;49.998;14.858;2022-09-01T02:49:10;5.03;;;3.35;;
71888;SDS011;59762;49.998;14.858;2022-09-01T02:51:45;10.32;;;3.47;;
71888;SDS011;59762;49.998;14.858;2022-09-01T02:54:13;4.97;;;3.50;;
71888;SDS011;59762;49.998;14.858;2022-09-01T02:56:41;5.35;;;3.05;;
71888;SDS011;59762;49.998;14.858;2022-09-01T02:59:09;11.80;;;3.47;;
71888;SDS011;59762;49.998;14.858;2022-09-01T03:01:37;4.05;;;3.50;;
71888;SDS011;59762;49.998;14.858;2022-09-01T03:04:04;6.70;;;3.05;;
71888;SDS011;59762;49.998;14.858;2022-09-01T03:06:34;7.68;;;3.72;;
71888;SDS011;59762;49.998;14.858;2022-09-01T03:09:02;4.13;;;3.38;;
71888;SDS011;59762;49.998;14.858;2022-09-01T03:11:31;3.78;;;2.92;;
71888;SDS011;59762;49.998;14.858;2022-09-01T03:13:59;6.63;;;3.08;;
71888;SDS011;59762;49.998;14.858;2022-09-01T03:16:25;4.10;;;3.00;;
71888;SDS011;59762;49.998;14.858;2022-09-01T03:18:51;6.47;;;3.20;;
71888;SDS011;59762;49.998;14.858;2022-09-01T03:21:18;7.28;;;2.95;;
71888;SDS011;59762;49.998;14.858;2022-09-01T03:23:44;3.95;;;3.30;;
71888;SDS011;59762;49.998;14.858;2022-09-01T03:26:11;4.95;;;2.97;;
71888;SDS011;59762;49.998;14.858;2022-09-01T03:28:38;4.95;;;3.00;;
71888;SDS011;59762;49.998;14.858;2022-09-01T03:31:04;4.65;;;3.22;;
71888;SDS011;59762;49.998;14.858;2022-09-01T03:33:29;4.45;;;3.08;;
71888;SDS011;59762;49.998;14.858;2022-09-01T03:35:56;4.05;;;3.30;;
71888;SDS011;59762;49.998;14.858;2022-09-01T03:38:23;4.53;;;3.13;;
71888;SDS011;59762;49.998;14.858;2022-09-01T03:40:52;5.72;;;3.20;;
71888;SDS011;59762;49.998;14.858;2022-09-01T03:43:23;4.03;;;2.97;;
71888;SDS011;59762;49.998;14.858;2022-09-01T03:45:51;4.20;;;2.78;;
71888;SDS011;59762;49.998;14.858;2022-09-01T03:48:20;3.63;;;2.85;;
71888;SDS011;59762;49.998;14.858;2022-09-01T03:50:46;4.93;;;2.90;;
71888;SDS011;59762;49.998;14.858;2022-09-01T03:53:15;10.80;;;3.35;;
71888;SDS011;59762;49.998;14.858;2022-09-01T03:55:44;4.05;;;3.00;;
71888;SDS011;59762;49.998;14.858;2022-09-01T03:58:12;5.50;;;3.35;;
71888;SDS011;59762;49.998;14.858;2022-09-01T04:00:44;6.57;;;3.08;;
71888;SDS011;59762;49.998;14.858;2022-09-01T04:03:11;4.32;;;3.00;;
71888;SDS011;59762;49.998;14.858;2022-09-01T04:05:40;7.90;;;3.75;;
71888;SDS011;59762;49.998;14.858;2022-09-01T04:08:08;5.82;;;3.22;;
71888;SDS011;59762;49.998;14.858;2022-09-01T04:10:36;5.82;;;3.22;;
71888;SDS011;59762;49.998;14.858;2022-09-01T04:13:15;5.45;;;2.92;;
71888;SDS011;59762;49.998;14.858;2022-09-01T04:15:42;6.45;;;3.20;;
71888;SDS011;59762;49.998;14.858;2022-09-01T04:18:08;5.03;;;2.58;;
71888;SDS011;59762;49.998;14.858;2022-09-01T04:20:45;3.47;;;2.67;;
71888;SDS011;59762;49.998;14.858;2022-09-01T04:23:14;4.18;;;2.58;;
71888;SDS011;59762;49.998;14.858;2022-09-01T04:25:51;3.70;;;3.00;;
71888;SDS011;59762;49.998;14.858;2022-09-01T04:28:19;2.95;;;2.50;;
71888;SDS011;59762;49.998;14.858;2022-09-01T04:30:49;3.97;;;2.70;;
71888;SDS011;59762;49.998;14.858;2022-09-01T04:33:21;3.97;;;2.55;;
71888;SDS011;59762;49.998;14.858;2022-09-01T04:35:48;2.92;;;2.38;;
71888;SDS011;59762;49.998;14.858;2022-09-01T04:38:21;4.65;;;2.30;;
71888;SDS011;59762;49.998;14.858;2022-09-01T04:40:49;4.60;;;2.22;;
71888;SDS011;59762;49.998;14.858;2022-09-01T04:43:15;4.13;;;2.47;;
71888;SDS011;59762;49.998;14.858;2022-09-01T04:45:41;4.20;;;2.45;;
71888;SDS011;59762;49.998;14.858;2022-09-01T04:48:07;3.65;;;1.77;;
71888;SDS011;59762;49.998;14.858;2022-09-01T04:50:33;3.38;;;2.00;;
71888;SDS011;59762;49.998;14.858;2022-09-01T04:53:00;4.43;;;2.30;;
71888;SDS011;59762;49.998;14.858;2022-09-01T04:55:28;9.48;;;2.70;;
71888;SDS011;59762;49.998;14.858;2022-09-01T04:57:58;5.35;;;2.30;;
71888;SDS011;59762;49.998;14.858;2022-09-01T05:00:26;3.47;;;2.20;;
71888;SDS011;59762;49.998;14.858;2022-09-01T05:02:57;3.85;;;2.30;;
71888;SDS011;59762;49.998;14.858;2022-09-01T05:05:38;3.95;;;2.53;;
71888;SDS011;59762;49.998;14.858;2022-09-01T05:08:12;4.40;;;2.50;;
71888;SDS011;59762;49.998;14.858;2022-09-01T05:10:41;3.17;;;2.20;;
71888;SDS011;59762;49.998;14.858;2022-09-01T05:13:09;5.75;;;2.25;;
71888;SDS011;59762;49.998;14.858;2022-09-01T05:15:40;7.22;;;2.13;;
71888;SDS011;59762;49.998;14.858;2022-09-01T05:18:15;6.80;;;2.25;;
71888;SDS011;59762;49.998;14.858;2022-09-01T05:20:48;5.30;;;2.03;;
71888;SDS011;59762;49.998;14.858;2022-09-01T05:23:18;5.82;;;2.47;;
71888;SDS011;59762;49.998;14.858;2022-09-01T05:25:45;6.18;;;2.30;;
71888;SDS011;59762;49.998;14.858;2022-09-01T05:28:16;3.58;;;2.38;;
71888;SDS011;59762;49.998;14.858;2022-09-01T05:30:43;3.28;;;2.72;;
71888;SDS011;59762;49.998;14.858;2022-09-01T05:33:11;4.63;;;2.60;;
71888;SDS011;59762;49.998;14.858;2022-09-01T05:35:41;5.45;;;2.47;;
71888;SDS011;59762;49.998;14.858;2022-09-01T05:38:16;4.78;;;2.65;;
71888;SDS011;59762;49.998;14.858;2022-09-01T05:40:42;5.38;;;2.85;;
71888;SDS011;59762;49.998;14.858;2022-09-01T05:43:09;4.20;;;2.70;;
71888;SDS011;59762;49.998;14.858;2022-09-01T05:45:40;2.88;;;2.00;;
71888;SDS011;59762;49.998;14.858;2022-09-01T05:48:11;2.72;;;2.22;;
71888;SDS011;59762;49.998;14.858;2022-09-01T05:50:39;3.08;;;2.05;;
71888;SDS011;59762;49.998;14.858;2022-09-01T05:53:08;2.33;;;1.60;;
71888;SDS011;59762;49.998;14.858;2022-09-01T05:55:40;3.03;;;1.83;;
71888;SDS011;59762;49.998;14.858;2022-09-01T05:58:09;3.90;;;1.65;;
71888;SDS011;59762;49.998;14.858;2022-09-01T06:00:38;5.60;;;2.42;;
71888;SDS011;59762;49.998;14.858;2022-09-01T06:03:05;5.28;;;2.17;;
71888;SDS011;59762;49.998;14.858;2022-09-01T06:05:33;2.63;;;1.77;;
71888;SDS011;59762;49.998;14.858;2022-09-01T06:08:01;2.20;;;1.70;;
71888;SDS011;59762;49.998;14.858;2022-09-01T06:10:30;8.02;;;3.25;;
71888;SDS011;59762;49.998;14.858;2022-09-01T06:12:56;3.80;;;1.85;;
71888;SDS011;59762;49.998;14.858;2022-09-01T06:15:27;7.75;;;2.60;;
71888;SDS011;59762;49.998;14.858;2022-09-01T06:17:55;2.85;;;1.98;;
71888;SDS011;59762;49.998;14.858;2022-09-01T06:20:22;3.22;;;1.85;;
71888;SDS011;59762;49.998;14.858;2022-09-01T06:22:48;2.15;;;1.80;;
71888;SDS011;59762;49.998;14.858;2022-09-01T06:25:14;4.68;;;2.10;;
71888;SDS011;59762;49.998;14.858;2022-09-01T06:27:43;5.38;;;1.95;;
71888;SDS011;59762;49.998;14.858;2022-09-01T06:30:10;3.33;;;1.80;;
71888;SDS011;59762;49.998;14.858;2022-09-01T06:32:42;7.82;;;2.00;;
71888;SDS011;59762;49.998;14.858;2022-09-01T06:35:09;2.88;;;1.73;;
71888;SDS011;59762;49.998;14.858;2022-09-01T06:37:38;4.63;;;1.92;;
71888;SDS011;59762;49.998;14.858;2022-09-01T06:40:06;3.15;;;1.70;;
71888;SDS011;59762;49.998;14.858;2022-09-01T06:45:08;1.75;;;1.38;;
71888;SDS011;59762;49.998;14.858;2022-09-01T06:47:35;2.28;;;1.75;;
71888;SDS011;59762;49.998;14.858;2022-09-01T06:50:01;2.47;;;1.67;;
71888;SDS011;59762;49.998;14.858;2022-09-01T06:52:28;3.15;;;1.40;;
71888;SDS011;59762;49.998;14.858;2022-09-01T06:54:53;2.25;;;1.55;;
71888;SDS011;59762;49.998;14.858;2022-09-01T06:57:20;3.63;;;1.70;;
71888;SDS011;59762;49.998;14.858;2022-09-01T06:59:46;3.28;;;1.83;;
71888;SDS011;59762;49.998;14.858;2022-09-01T07:02:14;2.47;;;1.55;;
71888;SDS011;59762;49.998;14.858;2022-09-01T07:04:41;4.10;;;1.60;;
71888;SDS011;59762;49.998;14.858;2022-09-01T07:07:08;3.10;;;1.60;;
71888;SDS011;59762;49.998;14.858;2022-09-01T07:09:35;1.40;;;1.30;;
71888;SDS011;59762;49.998;14.858;2022-09-01T07:12:01;3.67;;;1.48;;
71888;SDS011;59762;49.998;14.858;2022-09-01T07:14:28;5.43;;;1.50;;
71888;SDS011;59762;49.998;14.858;2022-09-01T07:16:54;3.35;;;1.42;;
71888;SDS011;59762;49.998;14.858;2022-09-01T07:19:22;3.58;;;1.55;;
71888;SDS011;59762;49.998;14.858;2022-09-01T07:21:50;3.90;;;1.50;;
71888;SDS011;59762;49.998;14.858;2022-09-01T07:24:17;7.00;;;1.88;;
71888;SDS011;59762;49.998;14.858;2022-09-01T07:26:44;4.80;;;1.42;;
71888;SDS011;59762;49.998;14.858;2022-09-01T07:29:15;3.08;;;1.17;;
71888;SDS011;59762;49.998;14.858;2022-09-01T07:31:42;1.70;;;1.35;;
71888;SDS011;59762;49.998;14.858;2022-09-01T07:34:09;3.47;;;1.40;;
71888;SDS011;59762;49.998;14.858;2022-09-01T07:36:40;1.98;;;1.20;;
71888;SDS011;59762;49.998;14.858;2022-09-01T07:39:07;2.25;;;1.40;;
71888;SDS011;59762;49.998;14.858;2022-09-01T07:41:34;2.63;;;1.38;;
71888;SDS011;59762;49.998;14.858;2022-09-01T07:44:00;2.35;;;1.40;;
71888;SDS011;59762;49.998;14.858;2022-09-01T07:46:29;3.38;;;1.40;;
71888;SDS011;59762;49.998;14.858;2022-09-01T07:48:57;2.05;;;1.30;;
71888;SDS011;59762;49.998;14.858;2022-09-01T07:51:24;2.67;;;1.20;;
71888;SDS011;59762;49.998;14.858;2022-09-01T07:53:51;2.60;;;1.10;;
71888;SDS011;59762;49.998;14.858;2022-09-01T07:56:18;3.15;;;1.60;;
71888;SDS011;59762;49.998;14.858;2022-09-01T07:58:45;4.43;;;1.60;;
71888;SDS011;59762;49.998;14.858;2022-09-01T08:01:16;3.78;;;1.38;;
71888;SDS011;59762;49.998;14.858;2022-09-01T08:03:45;2.25;;;1.33;;
71888;SDS011;59762;49.998;14.858;2022-09-01T08:06:12;2.05;;;1.25;;
71888;SDS011;59762;49.998;14.858;2022-09-01T08:08:43;4.50;;;1.13;;
71888;SDS011;59762;49.998;14.858;2022-09-01T08:11:14;2.83;;;1.33;;
71888;SDS011;59762;49.998;14.858;2022-09-01T08:13:42;1.45;;;1.10;;
71888;SDS011;59762;49.998;14.858;2022-09-01T08:16:07;3.13;;;1.40;;
71888;SDS011;59762;49.998;14.858;2022-09-01T08:18:34;2.30;;;1.13;;
71888;SDS011;59762;49.998;14.858;2022-09-01T08:21:04;4.78;;;1.42;;
71888;SDS011;59762;49.998;14.858;2022-09-01T08:23:33;2.22;;;1.65;;
71888;SDS011;59762;49.998;14.858;2022-09-01T08:26:03;1.90;;;1.20;;
71888;SDS011;59762;49.998;14.858;2022-09-01T08:28:33;2.08;;;1.20;;
71888;SDS011;59762;49.998;14.858;2022-09-01T08:31:04;3.58;;;1.98;;
71888;SDS011;59762;49.998;14.858;2022-09-01T08:33:38;2.90;;;1.50;;
71888;SDS011;59762;49.998;14.858;2022-09-01T08:36:09;1.38;;;1.00;;
71888;SDS011;59762;49.998;14.858;2022-09-01T08:38:36;2.25;;;1.33;;
71888;SDS011;59762;49.998;14.858;2022-09-01T08:41:02;2.33;;;1.23;;
71888;SDS011;59762;49.998;14.858;2022-09-01T08:46:27;6.32;;;1.35;;
71888;SDS011;59762;49.998;14.858;2022-09-01T08:48:57;2.95;;;1.10;;
71888;SDS011;59762;49.998;14.858;2022-09-01T08:54:09;1.25;;;0.80;;
71888;SDS011;59762;49.998;14.858;2022-09-01T08:57:01;1.20;;;1.00;;
71888;SDS011;59762;49.998;14.858;2022-09-01T08:59:31;1.73;;;1.02;;
71888;SDS011;59762;49.998;14.858;2022-09-01T09:10:11;1.90;;;1.25;;
71888;SDS011;59762;49.998;14.858;2022-09-01T09:13:06;2.50;;;0.98;;
71888;SDS011;59762;49.998;14.858;2022-09-01T09:18:30;1.27;;;0.70;;
71888;SDS011;59762;49.998;14.858;2022-09-01T09:21:07;4.38;;;0.88;;
71888;SDS011;59762;49.998;14.858;2022-09-01T09:23:41;2.03;;;0.90;;
71888;SDS011;59762;49.998;14.858;2022-09-01T09:26:10;3.13;;;0.90;;
71888;SDS011;59762;49.998;14.858;2022-09-01T09:28:37;0.80;;;0.80;;
71888;SDS011;59762;49.998;14.858;2022-09-01T09:33:54;0.95;;;0.50;;
71888;SDS011;59762;49.998;14.858;2022-09-01T09:36:22;1.27;;;0.70;;
71888;SDS011;59762;49.998;14.858;2022-09-01T09:39:02;0.70;;;0.70;;
71888;SDS011;59762;49.998;14.858;2022-09-01T09:41:41;1.40;;;0.70;;
71888;SDS011;59762;49.998;14.858;2022-09-01T09:44:18;3.05;;;0.85;;
71888;SDS011;59762;49.998;14.858;2022-09-01T09:46:49;0.95;;;0.80;;
71888;SDS011;59762;49.998;14.858;2022-09-01T09:49:17;0.80;;;0.70;;
71888;SDS011;59762;49.998;14.858;2022-09-01T09:51:48;1.95;;;0.60;;
71888;SDS011;59762;49.998;14.858;2022-09-01T09:54:20;1.88;;;1.02;;
71888;SDS011;59762;49.998;14.858;2022-09-01T09:56:49;1.85;;;0.70;;
71888;SDS011;59762;49.998;14.858;2022-09-01T09:59:33;2.50;;;0.80;;
71888;SDS011;59762;49.998;14.858;2022-09-01T10:04:49;1.13;;;0.70;;
71888;SDS011;59762;49.998;14.858;2022-09-01T10:09:50;0.88;;;0.75;;
71888;SDS011;59762;49.998;14.858;2022-09-01T10:12:17;1.00;;;0.80;;
71888;SDS011;59762;49.998;14.858;2022-09-01T10:17:47;1.08;;;0.80;;
71888;SDS011;59762;49.998;14.858;2022-09-01T10:20:17;2.42;;;1.00;;
71888;SDS011;59762;49.998;14.858;2022-09-01T10:22:46;1.00;;;0.90;;
71888;SDS011;59762;49.998;14.858;2022-09-01T10:25:16;3.33;;;0.82;;
71888;SDS011;59762;49.998;14.858;2022-09-01T10:27:46;1.48;;;1.00;;
71888;SDS011;59762;49.998;14.858;2022-09-01T10:30:17;2.72;;;0.93;;
71888;SDS011;59762;49.998;14.858;2022-09-01T10:32:45;0.98;;;0.80;;
71888;SDS011;59762;49.998;14.858;2022-09-01T10:35:28;3.15;;;0.98;;
71888;SDS011;59762;49.998;14.858;2022-09-01T10:37:57;5.15;;;0.70;;
71888;SDS011;59762;49.998;14.858;2022-09-01T10:42:54;2.75;;;0.88;;
71888;SDS011;59762;49.998;14.858;2022-09-01T10:45:28;0.65;;;0.57;;
71888;SDS011;59762;49.998;14.858;2022-09-01T10:47:56;1.85;;;0.70;;
71888;SDS011;59762;49.998;14.858;2022-09-01T10:50:43;0.70;;;0.68;;
71888;SDS011;59762;49.998;14.858;2022-09-01T10:53:36;0.88;;;0.73;;
71888;SDS011;59762;49.998;14.858;2022-09-01T11:04:05;1.67;;;0.75;;
71888;SDS011;59762;49.998;14.858;2022-09-01T11:06:33;0.98;;;0.70;;
71888;SDS011;59762;49.998;14.858;2022-09-01T11:11:59;1.55;;;0.80;;
71888;SDS011;59762;49.998;14.858;2022-09-01T11:14:27;2.95;;;0.70;;
71888;SDS011;59762;49.998;14.858;2022-09-01T11:19:44;1.25;;;0.75;;
71888;SDS011;59762;49.998;14.858;2022-09-01T11:22:22;1.98;;;0.88;;
71888;SDS011;59762;49.998;14.858;2022-09-01T11:24:51;1.13;;;0.70;;
71888;SDS011;59762;49.998;14.858;2022-09-01T11:30:14;1.35;;;0.80;;
71888;SDS011;59762;49.998;14.858;2022-09-01T11:32:49;1.70;;;0.70;;
71888;SDS011;59762;49.998;14.858;2022-09-01T11:35:22;7.38;;;1.58;;
71888;SDS011;59762;49.998;14.858;2022-09-01T11:37:52;4.30;;;1.27;;
71888;SDS011;59762;49.998;14.858;2022-09-01T11:40:29;2.15;;;0.80;;
71888;SDS011;59762;49.998;14.858;2022-09-01T11:42:57;1.33;;;0.60;;
71888;SDS011;59762;49.998;14.858;2022-09-01T11:45:26;2.05;;;0.80;;
71888;SDS011;59762;49.998;14.858;2022-09-01T11:47:57;0.60;;;0.60;;
71888;SDS011;59762;49.998;14.858;2022-09-01T11:50:27;1.30;;;0.80;;
71888;SDS011;59762;49.998;14.858;2022-09-01T11:52:59;3.83;;;0.93;;
71888;SDS011;59762;49.998;14.858;2022-09-01T11:57:55;2.50;;;0.82;;
71888;SDS011;59762;49.998;14.858;2022-09-01T12:00:54;3.85;;;0.80;;
71888;SDS011;59762;49.998;14.858;2022-09-01T12:03:24;0.77;;;0.70;;
71888;SDS011;59762;49.998;14.858;2022-09-01T12:05:53;0.55;;;0.55;;
71888;SDS011;59762;49.998;14.858;2022-09-01T12:08:23;0.65;;;0.65;;
71888;SDS011;59762;49.998;14.858;2022-09-01T12:11:02;1.33;;;0.70;;
71888;SDS011;59762;49.998;14.858;2022-09-01T12:13:34;0.73;;;0.63;;
71888;SDS011;59762;49.998;14.858;2022-09-01T12:16:01;1.67;;;0.75;;
71888;SDS011;59762;49.998;14.858;2022-09-01T12:18:30;2.45;;;0.82;;
71888;SDS011;59762;49.998;14.858;2022-09-01T12:20:59;1.83;;;0.90;;
71888;SDS011;59762;49.998;14.858;2022-09-01T12:23:36;1.27;;;0.70;;
71888;SDS011;59762;49.998;14.858;2022-09-01T12:26:23;1.98;;;0.90;;
71888;SDS011;59762;49.998;14.858;2022-09-01T12:28:51;1.25;;;0.88;;
71888;SDS011;59762;49.998;14.858;2022-09-01T12:31:19;0.88;;;0.70;;
71888;SDS011;59762;49.998;14.858;2022-09-01T12:33:48;0.80;;;0.70;;
71888;SDS011;59762;49.998;14.858;2022-09-01T12:36:30;2.67;;;1.10;;
71888;SDS011;59762;49.998;14.858;2022-09-01T12:41:43;1.05;;;0.70;;
71888;SDS011;59762;49.998;14.858;2022-09-01T12:44:27;1.42;;;0.82;;
71888;SDS011;59762;49.998;14.858;2022-09-01T12:47:06;1.33;;;0.80;;
71888;SDS011;59762;49.998;14.858;2022-09-01T12:52:19;2.83;;;0.98;;
71888;SDS011;59762;49.998;14.858;2022-09-01T12:55:13;3.42;;;0.90;;
71888;SDS011;59762;49.998;14.858;2022-09-01T12:57:56;2.75;;;1.02;;
71888;SDS011;59762;49.998;14.858;2022-09-01T13:00:25;1.15;;;0.80;;
71888;SDS011;59762;49.998;14.858;2022-09-01T13:05:33;0.80;;;0.70;;
71888;SDS011;59762;49.998;14.858;2022-09-01T13:08:02;1.92;;;1.20;;
71888;SDS011;59762;49.998;14.858;2022-09-01T13:10:31;2.42;;;1.35;;
71888;SDS011;59762;49.998;14.858;2022-09-01T13:12:59;0.98;;;0.70;;
71888;SDS011;59762;49.998;14.858;2022-09-01T13:15:26;1.05;;;0.70;;
71888;SDS011;59762;49.998;14.858;2022-09-01T13:17:52;0.90;;;0.77;;
71888;SDS011;59762;49.998;14.858;2022-09-01T13:20:18;1.35;;;0.80;;
71888;SDS011;59762;49.998;14.858;2022-09-01T13:22:44;3.72;;;0.75;;
71888;SDS011;59762;49.998;14.858;2022-09-01T13:25:13;0.70;;;0.65;;
71888;SDS011;59762;49.998;14.858;2022-09-01T13:27:43;3.15;;;0.77;;
71888;SDS011;59762;49.998;14.858;2022-09-01T13:30:09;0.80;;;0.70;;
71888;SDS011;59762;49.998;14.858;2022-09-01T13:32:36;1.63;;;0.90;;
71888;SDS011;59762;49.998;14.858;2022-09-01T13:35:02;0.80;;;0.65;;
71888;SDS011;59762;49.998;14.858;2022-09-01T13:37:29;1.77;;;1.55;;
71888;SDS011;59762;49.998;14.858;2022-09-01T13:39:54;0.73;;;0.70;;
71888;SDS011;59762;49.998;14.858;2022-09-01T13:42:20;0.82;;;0.63;;
71888;SDS011;59762;49.998;14.858;2022-09-01T13:44:45;3.53;;;0.73;;
71888;SDS011;59762;49.998;14.858;2022-09-01T13:47:11;1.88;;;0.70;;
71888;SDS011;59762;49.998;14.858;2022-09-01T13:49:37;0.75;;;0.68;;
71888;SDS011;59762;49.998;14.858;2022-09-01T13:52:03;2.85;;;1.00;;
71888;SDS011;59762;49.998;14.858;2022-09-01T13:54:29;2.05;;;0.70;;
71888;SDS011;59762;49.998;14.858;2022-09-01T13:56:54;1.30;;;0.95;;
71888;SDS011;59762;49.998;14.858;2022-09-01T13:59:20;2.63;;;0.90;;
71888;SDS011;59762;49.998;14.858;2022-09-01T14:01:45;1.85;;;0.85;;
71888;SDS011;59762;49.998;14.858;2022-09-01T14:04:11;0.68;;;0.65;;
71888;SDS011;59762;49.998;14.858;2022-09-01T14:06:40;0.77;;;0.70;;
71888;SDS011;59762;49.998;14.858;2022-09-01T14:09:09;3.50;;;0.80;;
71888;SDS011;59762;49.998;14.858;2022-09-01T14:11:38;1.75;;;0.80;;
71888;SDS011;59762;49.998;14.858;2022-09-01T14:14:04;0.70;;;0.60;;
71888;SDS011;59762;49.998;14.858;2022-09-01T14:16:30;2.20;;;0.80;;
71888;SDS011;59762;49.998;14.858;2022-09-01T14:18:56;1.17;;;0.55;;
71888;SDS011;59762;49.998;14.858;2022-09-01T14:21:24;2.30;;;0.75;;
71888;SDS011;59762;49.998;14.858;2022-09-01T14:23:50;1.10;;;0.60;;
71888;SDS011;59762;49.998;14.858;2022-09-01T14:26:16;2.50;;;0.82;;
71888;SDS011;59762;49.998;14.858;2022-09-01T14:28:42;0.77;;;0.52;;
71888;SDS011;59762;49.998;14.858;2022-09-01T14:31:10;1.20;;;0.75;;
71888;SDS011;59762;49.998;14.858;2022-09-01T14:33:37;2.05;;;0.63;;
71888;SDS011;59762;49.998;14.858;2022-09-01T14:36:04;2.55;;;0.90;;
71888;SDS011;59762;49.998;14.858;2022-09-01T14:38:31;2.47;;;0.80;;
71888;SDS011;59762;49.998;14.858;2022-09-01T14:40:58;0.95;;;0.63;;
71888;SDS011;59762;49.998;14.858;2022-09-01T14:43:23;1.23;;;0.60;;
71888;SDS011;59762;49.998;14.858;2022-09-01T14:46:00;1.60;;;0.70;;
71888;SDS011;59762;49.998;14.858;2022-09-01T14:48:31;0.60;;;0.60;;
71888;SDS011;59762;49.998;14.858;2022-09-01T14:50:58;0.63;;;0.63;;
71888;SDS011;59762;49.998;14.858;2022-09-01T14:53:25;1.17;;;0.80;;
71888;SDS011;59762;49.998;14.858;2022-09-01T14:55:52;2.17;;;0.80;;
71888;SDS011;59762;49.998;14.858;2022-09-01T14:58:18;1.90;;;0.70;;
71888;SDS011;59762;49.998;14.858;2022-09-01T15:00:44;1.90;;;0.70;;
71888;SDS011;59762;49.998;14.858;2022-09-01T15:03:09;0.50;;;0.50;;
71888;SDS011;59762;49.998;14.858;2022-09-01T15:05:36;1.10;;;0.70;;
71888;SDS011;59762;49.998;14.858;2022-09-01T15:08:02;5.15;;;1.10;;
71888;SDS011;59762;49.998;14.858;2022-09-01T15:10:28;1.73;;;0.90;;
71888;SDS011;59762;49.998;14.858;2022-09-01T15:12:54;1.33;;;0.90;;
71888;SDS011;59762;49.998;14.858;2022-09-01T15:15:21;1.25;;;0.80;;
71888;SDS011;59762;49.998;14.858;2022-09-01T15:17:48;0.85;;;0.70;;
71888;SDS011;59762;49.998;14.858;2022-09-01T15:20:13;1.70;;;1.13;;
71888;SDS011;59762;49.998;14.858;2022-09-01T15:22:57;7.45;;;1.17;;
71888;SDS011;59762;49.998;14.858;2022-09-01T15:25:23;1.85;;;0.70;;
71888;SDS011;59762;49.998;14.858;2022-09-01T15:27:49;1.33;;;0.77;;
71888;SDS011;59762;49.998;14.858;2022-09-01T15:30:15;4.35;;;1.05;;
71888;SDS011;59762;49.998;14.858;2022-09-01T15:32:42;2.92;;;0.75;;
71888;SDS011;59762;49.998;14.858;2022-09-01T15:35:08;0.90;;;0.70;;
71888;SDS011;59762;49.998;14.858;2022-09-01T15:37:35;0.90;;;0.80;;
71888;SDS011;59762;49.998;14.858;2022-09-01T15:40:00;2.55;;;1.00;;
71888;SDS011;59762;49.998;14.858;2022-09-01T15:42:26;3.20;;;0.85;;
71888;SDS011;59762;49.998;14.858;2022-09-01T15:44:52;1.42;;;1.05;;
71888;SDS011;59762;49.998;14.858;2022-09-01T15:47:17;9.07;;;1.33;;
71888;SDS011;59762;49.998;14.858;2022-09-01T15:49:43;4.60;;;1.00;;